createdAt,value
2023-05-25T00:01:01.076Z,99718.63
2023-05-25T00:02:35.038Z,99712.59
2023-05-25T00:04:07.333Z,99724.06
2023-05-25T00:05:40.193Z,99718.03
2023-05-25T00:07:12.351Z,99716.38
2023-05-25T00:08:46.189Z,99711.13
2023-05-25T00:10:18.276Z,99713.81
2023-05-25T00:11:50.596Z,99716.59
2023-05-25T00:13:22.734Z,99717.69
2023-05-25T00:14:54.894Z,99717.91
2023-05-25T00:16:27.295Z,99714.56
2023-05-25T00:17:59.530Z,99710.34
2023-05-25T00:19:34.725Z,99719.81
2023-05-25T00:21:07.747Z,99714.56
2023-05-25T00:22:40.042Z,99717.97
2023-05-25T00:24:12.385Z,99714.44
2023-05-25T00:25:44.837Z,99709.47
2023-05-25T00:27:17.307Z,99712.97
2023-05-25T00:28:49.495Z,99714.91
2023-05-25T00:30:21.715Z,99716.84
2023-05-25T00:31:54.517Z,99715.97
2023-05-25T00:33:26.665Z,99715.28
2023-05-25T00:34:58.774Z,99710.28
2023-05-25T00:36:30.958Z,99719.84
2023-05-25T00:39:42.759Z,99717.72
2023-05-25T00:41:17.627Z,99727.84
2023-05-25T00:42:49.828Z,99734.16
2023-05-25T00:44:22.227Z,99729.88
2023-05-25T00:45:55.052Z,99726.47
2023-05-25T00:47:28.156Z,99734.44
2023-05-25T00:49:00.385Z,99730.41
2023-05-25T00:50:43.079Z,99726.78
2023-05-25T00:52:16.046Z,99730.44
2023-05-25T00:53:48.219Z,99732.34
2023-05-25T00:55:20.741Z,99729.88
2023-05-25T00:57:06.340Z,99733.28
2023-05-25T00:58:41.689Z,99736.97
2023-05-25T01:00:15.124Z,99735.53
2023-05-25T01:01:48.108Z,99738.22
2023-05-25T01:03:22.364Z,99740.22
2023-05-25T01:04:55.414Z,99741.97
2023-05-25T01:06:32.367Z,99742.13
2023-05-25T01:08:05.916Z,99737.13
2023-05-25T01:09:42.592Z,99750.97
2023-05-25T01:11:14.883Z,99752.00
2023-05-25T01:12:47.272Z,99757.28
2023-05-25T01:14:22.416Z,99753.00
2023-05-25T01:15:54.584Z,99759.09
2023-05-25T01:17:29.504Z,99747.00
2023-05-25T01:19:01.721Z,99751.38
2023-05-25T01:20:34.127Z,99744.63
2023-05-25T01:22:09.192Z,99752.50
2023-05-25T01:23:48.701Z,99749.09
2023-05-25T01:25:23.557Z,99747.59
2023-05-25T01:27:10.591Z,99754.63
2023-05-25T01:28:47.749Z,99752.19
2023-05-25T01:30:20.576Z,99747.16
2023-05-25T01:31:54.846Z,99753.06
2023-05-25T01:33:28.267Z,99751.34
2023-05-25T01:35:00.314Z,99745.16
2023-05-25T01:36:33.609Z,99748.94
2023-05-25T01:38:06.260Z,99756.81
2023-05-25T01:39:38.721Z,99744.75
2023-05-25T01:41:10.960Z,99754.44
2023-05-25T01:42:43.227Z,99753.72
2023-05-25T01:44:15.948Z,99750.31
2023-05-25T01:45:48.396Z,99754.69
2023-05-25T01:47:33.712Z,99748.59
2023-05-25T01:49:28.481Z,99746.09
2023-05-25T01:51:07.540Z,99742.81
2023-05-25T01:52:44.445Z,99743.78
2023-05-25T01:54:20.601Z,99751.72
2023-05-25T01:56:04.814Z,99738.84
2023-05-25T01:57:38.473Z,99749.41
2023-05-25T01:59:11.472Z,99744.25
2023-05-25T02:00:43.727Z,99747.88
2023-05-25T02:02:19.095Z,99752.13
2023-05-25T02:03:52.347Z,99758.31
2023-05-25T02:05:24.479Z,99749.78
2023-05-25T02:06:57.192Z,99753.38
2023-05-25T02:08:29.430Z,99755.19
2023-05-25T02:10:01.675Z,99755.31
2023-05-25T02:11:36.993Z,99746.69
2023-05-25T02:13:09.123Z,99746.81
2023-05-25T02:14:41.701Z,99750.38
2023-05-25T02:16:13.920Z,99752.19
2023-05-25T02:17:46.112Z,99748.75
2023-05-25T02:19:18.473Z,99754.75
2023-05-25T02:20:50.736Z,99758.25
2023-05-25T02:22:23.164Z,99766.06
2023-05-25T02:23:55.392Z,99758.38
2023-05-25T02:25:27.628Z,99762.84
2023-05-25T02:26:59.797Z,99760.34
2023-05-25T02:28:31.975Z,99766.50
2023-05-25T02:30:04.524Z,99760.50
2023-05-25T02:31:39.211Z,99755.28
2023-05-25T02:33:12.031Z,99761.47
2023-05-25T02:34:44.176Z,99765.09
2023-05-25T02:36:16.898Z,99762.66
2023-05-25T02:37:51.131Z,99762.66
2023-05-25T02:39:26.839Z,99766.22
2023-05-25T02:40:58.960Z,99768.06
2023-05-25T02:42:31.147Z,99771.59
2023-05-25T02:44:03.477Z,99772.47
2023-05-25T02:45:35.827Z,99774.06
2023-05-25T02:47:08.203Z,99774.06
2023-05-25T02:48:42.629Z,99776.69
2023-05-25T02:50:14.859Z,99779.41
2023-05-25T02:51:46.976Z,99775.09
2023-05-25T02:53:19.193Z,99779.44
2023-05-25T02:54:51.398Z,99780.28
2023-05-25T02:56:23.677Z,99782.94
2023-05-25T02:57:55.954Z,99776.91
2023-05-25T02:59:28.205Z,99782.22
2023-05-25T03:01:00.687Z,99778.75
2023-05-25T03:02:33.205Z,99782.28
2023-05-25T03:04:05.516Z,99778.81
2023-05-25T03:05:38.890Z,99783.94
2023-05-25T03:07:10.896Z,99780.41
2023-05-25T03:08:43.176Z,99778.81
2023-05-25T03:10:15.431Z,99777.94
2023-05-25T03:11:47.728Z,99784.03
2023-05-25T03:13:19.919Z,99782.31
2023-05-25T03:14:52.089Z,99777.94
2023-05-25T03:16:24.291Z,99787.56
2023-05-25T03:18:01.576Z,99789.38
2023-05-25T03:19:34.005Z,99784.13
2023-05-25T03:21:06.651Z,99788.38
2023-05-25T03:22:38.829Z,99780.63
2023-05-25T03:24:11.024Z,99784.88
2023-05-25T03:25:43.572Z,99788.44
2023-05-25T03:27:15.896Z,99789.31
2023-05-25T03:28:48.082Z,99786.72
2023-05-25T03:30:24.008Z,99790.94
2023-05-25T03:31:56.215Z,99791.78
2023-05-25T03:33:28.450Z,99796.94
2023-05-25T03:35:00.792Z,99797.78
2023-05-25T03:36:34.215Z,99802.94
2023-05-25T03:38:06.223Z,99807.94
2023-05-25T03:39:38.514Z,99808.06
2023-05-25T03:41:10.765Z,99807.97
2023-05-25T03:42:42.948Z,99816.56
2023-05-25T03:44:15.095Z,99814.88
2023-05-25T03:45:47.656Z,99813.91
2023-05-25T03:47:20.408Z,99820.72
2023-05-25T03:48:52.542Z,99817.94
2023-05-25T03:50:24.747Z,99821.31
2023-05-25T03:51:57.088Z,99828.16
2023-05-25T03:53:29.281Z,99817.91
2023-05-25T03:55:02.260Z,99818.41
2023-05-25T03:56:34.398Z,99820.78
2023-05-25T03:58:06.562Z,99825.88
2023-05-25T03:59:38.691Z,99830.13
2023-05-25T04:01:11.892Z,99838.72
2023-05-25T04:02:44.124Z,99829.09
2023-05-25T04:04:16.436Z,99834.19
2023-05-25T04:05:48.640Z,99831.34
2023-05-25T04:07:21.206Z,99832.06
2023-05-25T04:08:53.614Z,99829.16
2023-05-25T04:10:25.861Z,99823.84
2023-05-25T04:11:58.005Z,99814.88
2023-05-25T04:13:30.113Z,99809.47
2023-05-25T04:15:04.961Z,99806.66
2023-05-25T04:16:37.711Z,99808.16
2023-05-25T04:18:12.426Z,99812.28
2023-05-25T04:19:44.693Z,99803.25
2023-05-25T04:21:17.154Z,99804.84
2023-05-25T04:22:50.399Z,99794.06
2023-05-25T04:24:23.067Z,99793.00
2023-05-25T04:25:55.282Z,99788.31
2023-05-25T04:27:28.821Z,99800.19
2023-05-25T04:29:02.409Z,99793.03
2023-05-25T04:30:36.160Z,99788.47
2023-05-25T04:32:10.022Z,99802.19
2023-05-25T04:33:42.243Z,99805.66
2023-05-25T04:35:21.346Z,99809.00
2023-05-25T04:36:54.191Z,99815.84
2023-05-25T04:38:26.504Z,99812.19
2023-05-25T04:39:58.841Z,99819.19
2023-05-25T04:41:31.051Z,99825.84
2023-05-25T04:43:05.514Z,99825.75
2023-05-25T04:44:38.135Z,99830.81
2023-05-25T04:46:10.363Z,99832.28
2023-05-25T04:47:43.472Z,99830.31
2023-05-25T04:49:17.336Z,99839.56
2023-05-25T04:50:49.485Z,99838.56
2023-05-25T04:52:21.616Z,99846.25
2023-05-25T04:53:53.732Z,99848.75
2023-05-25T04:55:26.063Z,99845.25
2023-05-25T04:56:58.273Z,99849.69
2023-05-25T04:58:30.489Z,99844.41
2023-05-25T05:00:02.648Z,99840.13
2023-05-25T05:01:41.429Z,99850.69
2023-05-25T05:03:14.381Z,99869.81
2023-05-25T05:04:46.640Z,99875.16
2023-05-25T05:06:18.791Z,99881.16
2023-05-25T05:07:51.055Z,99886.34
2023-05-25T05:09:23.165Z,99883.66
2023-05-25T05:10:55.462Z,99880.91
2023-05-25T05:12:27.615Z,99888.75
2023-05-25T05:13:59.800Z,99895.69
2023-05-25T05:15:32.053Z,99909.59
2023-05-25T05:17:04.998Z,99922.63
2023-05-25T05:18:37.170Z,99932.16
2023-05-25T05:20:09.702Z,99930.31
2023-05-25T05:21:41.952Z,99938.25
2023-05-25T05:23:14.244Z,99934.72
2023-05-25T05:24:46.389Z,99942.50
2023-05-25T05:26:18.628Z,99938.00
2023-05-25T05:27:50.932Z,99943.94
2023-05-25T05:29:23.223Z,99946.44
2023-05-25T05:30:55.580Z,99948.00
2023-05-25T05:32:27.756Z,99940.84
2023-05-25T05:34:00.027Z,99936.41
2023-05-25T05:35:32.331Z,99942.50
2023-05-25T05:37:04.549Z,99938.19
2023-05-25T05:38:37.611Z,99932.94
2023-05-25T05:40:12.248Z,99932.91
2023-05-25T05:41:45.880Z,99924.22
2023-05-25T05:43:18.052Z,99931.28
2023-05-25T05:44:50.236Z,99927.72
2023-05-25T05:46:22.388Z,99925.06
2023-05-25T05:47:54.589Z,99923.28
2023-05-25T05:49:28.185Z,99928.31
2023-05-25T05:51:00.328Z,99930.03
2023-05-25T05:52:32.511Z,99927.34
2023-05-25T05:54:05.344Z,99930.66
2023-05-25T05:55:37.820Z,99921.97
2023-05-25T05:57:09.993Z,99921.13
2023-05-25T05:58:42.149Z,99915.06
2023-05-25T06:00:15.157Z,99915.91
2023-05-25T06:01:47.380Z,99919.41
2023-05-25T06:03:19.668Z,99913.28
2023-05-25T06:04:51.835Z,99914.91
2023-05-25T06:06:24.069Z,99915.69
2023-05-25T06:07:56.294Z,99917.28
2023-05-25T06:09:28.418Z,99920.72
2023-05-25T06:11:00.540Z,99920.47
2023-05-25T06:12:32.774Z,99921.19
2023-05-25T06:14:04.988Z,99933.22
2023-05-25T06:15:37.387Z,99934.78
2023-05-25T06:17:09.635Z,99933.72
2023-05-25T06:18:42.034Z,99934.44
2023-05-25T06:20:15.472Z,99935.16
2023-05-25T06:21:49.960Z,99932.25
2023-05-25T06:23:22.162Z,99931.41
2023-05-25T06:24:54.540Z,99937.50
2023-05-25T06:26:27.736Z,99936.53
2023-05-25T06:27:59.975Z,99930.28
2023-05-25T06:29:32.232Z,99938.84
2023-05-25T06:31:04.420Z,99938.69
2023-05-25T06:32:36.595Z,99935.00
2023-05-25T06:34:08.768Z,99935.66
2023-05-25T06:35:40.973Z,99928.50
2023-05-25T06:37:13.174Z,99926.66
2023-05-25T06:38:45.294Z,99922.16
2023-05-25T06:40:18.440Z,99923.72
2023-05-25T06:41:51.571Z,99917.69
2023-05-25T06:43:23.780Z,99922.56
2023-05-25T06:44:55.921Z,99930.34
2023-05-25T06:46:28.163Z,99919.72
2023-05-25T06:48:00.673Z,99922.19
2023-05-25T06:49:33.258Z,99922.69
2023-05-25T06:51:05.620Z,99913.78
2023-05-25T06:52:37.797Z,99914.31
2023-05-25T06:54:10.025Z,99912.25
2023-05-25T06:55:42.379Z,99912.72
2023-05-25T06:57:14.656Z,99911.59
2023-05-25T06:58:46.797Z,99913.06
2023-05-25T07:00:19.507Z,99912.59
2023-05-25T07:01:51.893Z,99920.16
2023-05-25T07:03:24.281Z,99917.28
2023-05-25T07:04:56.468Z,99916.97
2023-05-25T07:06:28.722Z,99916.81
2023-05-25T07:08:00.866Z,99913.03
2023-05-25T07:09:33.487Z,99911.88
2023-05-25T07:11:05.774Z,99920.34
2023-05-25T07:12:37.952Z,99913.13
2023-05-25T07:14:10.109Z,99917.34
2023-05-25T07:15:42.564Z,99907.69
2023-05-25T07:17:17.263Z,99909.41
2023-05-25T07:18:49.435Z,99909.25
2023-05-25T07:20:22.569Z,99906.47
2023-05-25T07:21:54.811Z,99903.69
2023-05-25T07:23:26.965Z,99902.66
2023-05-25T07:24:59.172Z,99913.84
2023-05-25T07:26:32.541Z,99904.91
2023-05-25T07:28:04.727Z,99913.47
2023-05-25T07:29:36.920Z,99912.78
2023-05-25T07:31:10.603Z,99916.09
2023-05-25T07:32:42.957Z,99913.38
2023-05-25T07:34:15.674Z,99925.56
2023-05-25T07:35:47.787Z,99911.50
2023-05-25T07:37:19.979Z,99915.06
2023-05-25T07:38:52.126Z,99915.91
2023-05-25T07:40:24.304Z,99921.94
2023-05-25T07:41:56.433Z,99926.16
2023-05-25T07:43:28.604Z,99921.78
2023-05-25T07:45:01.733Z,99927.03
2023-05-25T07:46:34.003Z,99926.03
2023-05-25T07:48:08.072Z,99926.78
2023-05-25T07:49:40.303Z,99932.13
2023-05-25T07:51:12.598Z,99934.66
2023-05-25T07:52:44.964Z,99938.81
2023-05-25T07:54:17.134Z,99928.34
2023-05-25T07:55:49.345Z,99929.03
2023-05-25T07:57:21.901Z,99928.00
2023-05-25T07:58:54.062Z,99926.28
2023-05-25T08:00:26.228Z,99935.81
2023-05-25T08:01:58.410Z,99929.63
2023-05-25T08:03:47.407Z,99939.19
2023-05-25T08:05:21.592Z,99933.00
2023-05-25T08:06:53.959Z,99938.84
2023-05-25T08:08:29.341Z,99936.16
2023-05-25T08:10:01.698Z,99941.28
2023-05-25T08:11:33.912Z,99936.03
2023-05-25T08:13:06.418Z,99943.81
2023-05-25T08:14:38.802Z,99936.69
2023-05-25T08:16:11.059Z,99939.25
2023-05-25T08:17:43.293Z,99938.22
2023-05-25T08:19:15.449Z,99937.25
2023-05-25T08:20:47.732Z,99933.66
2023-05-25T08:22:20.018Z,99935.38
2023-05-25T08:23:52.617Z,99942.94
2023-05-25T08:25:24.723Z,99939.34
2023-05-25T08:26:56.872Z,99945.31
2023-05-25T08:28:28.999Z,99944.19
2023-05-25T08:30:01.173Z,99948.34
2023-05-25T08:31:33.945Z,99947.16
2023-05-25T08:33:07.438Z,99940.91
2023-05-25T08:34:39.819Z,99934.63
2023-05-25T08:36:12.046Z,99945.38
2023-05-25T08:37:44.528Z,99946.91
2023-05-25T08:39:17.186Z,99941.31
2023-05-25T08:40:56.831Z,99948.69
2023-05-25T08:42:29.779Z,99950.28
2023-05-25T08:44:06.759Z,99955.38
2023-05-25T08:45:43.684Z,99954.19
2023-05-25T08:47:18.432Z,99955.78
2023-05-25T08:48:52.000Z,99953.59
2023-05-25T08:50:25.873Z,99950.81
2023-05-25T08:53:38.771Z,99951.97
2023-05-25T08:55:11.657Z,99952.38
2023-05-25T08:56:49.614Z,99957.25
2023-05-25T08:58:26.190Z,99963.28
2023-05-25T09:00:10.929Z,99951.56
2023-05-25T09:01:46.761Z,99960.88
2023-05-25T09:03:19.340Z,99965.13
2023-05-25T09:04:51.554Z,99962.13
2023-05-25T09:06:24.864Z,99961.69
2023-05-25T09:07:56.920Z,99961.03
2023-05-25T09:09:29.221Z,99957.38
2023-05-25T09:11:02.689Z,99959.53
2023-05-25T09:12:36.097Z,99959.00
2023-05-25T09:14:09.045Z,99955.25
2023-05-25T09:15:41.536Z,99959.22
2023-05-25T09:17:18.021Z,99950.66
2023-05-25T09:18:52.173Z,99954.13
2023-05-25T09:20:25.314Z,99951.00
2023-05-25T09:22:13.401Z,99952.50
2023-05-25T09:23:47.051Z,99958.03
2023-05-25T09:25:22.671Z,99955.88
2023-05-25T09:26:54.885Z,99954.63
2023-05-25T09:28:27.789Z,99952.72
2023-05-25T09:30:01.575Z,99941.44
2023-05-25T09:31:33.791Z,99952.41
2023-05-25T09:33:12.136Z,99949.34
2023-05-25T09:34:45.422Z,99950.28
2023-05-25T09:36:18.348Z,99952.31
2023-05-25T09:37:55.712Z,99949.50
2023-05-25T09:39:29.253Z,99944.31
2023-05-25T09:41:01.767Z,99952.69
2023-05-25T09:42:37.287Z,99951.31
2023-05-25T09:44:11.765Z,99947.19
2023-05-25T09:45:44.625Z,99945.28
2023-05-25T09:47:18.542Z,99948.50
2023-05-25T09:48:51.877Z,99941.66
2023-05-25T09:50:24.323Z,99944.09
2023-05-25T09:51:56.726Z,99947.06
2023-05-25T09:53:28.956Z,99947.50
2023-05-25T09:55:05.392Z,99944.34
2023-05-25T09:56:37.907Z,99938.13
2023-05-25T09:58:10.104Z,99933.38
2023-05-25T09:59:43.206Z,99936.97
2023-05-25T10:01:19.347Z,99931.16
2023-05-25T10:02:51.988Z,99934.47
2023-05-25T10:04:24.236Z,99926.25
2023-05-25T10:05:56.905Z,99930.47
2023-05-25T10:07:29.583Z,99921.28
2023-05-25T10:09:02.036Z,99924.47
2023-05-25T10:10:34.303Z,99933.00
2023-05-25T10:12:07.161Z,99910.63
2023-05-25T10:13:39.934Z,99919.19
2023-05-25T10:15:13.693Z,99915.38
2023-05-25T10:16:50.847Z,99917.59
2023-05-25T10:18:26.658Z,99911.13
2023-05-25T10:20:01.836Z,99913.34
2023-05-25T10:21:34.834Z,99904.34
2023-05-25T10:23:18.039Z,99904.25
2023-05-25T10:25:25.210Z,99893.09
2023-05-25T10:27:10.768Z,99899.25
2023-05-25T10:28:51.091Z,99893.53
2023-05-25T10:30:24.633Z,99889.09
2023-05-25T10:31:57.824Z,99888.78
2023-05-25T10:35:03.125Z,99877.09
2023-05-25T10:36:35.401Z,99872.69
2023-05-25T10:38:07.860Z,99873.91
2023-05-25T10:39:44.981Z,99873.22
2023-05-25T10:41:17.252Z,99872.16
2023-05-25T10:42:51.461Z,99863.53
2023-05-25T10:44:24.114Z,99861.41
2023-05-25T10:45:57.586Z,99869.09
2023-05-25T10:47:32.800Z,99854.47
2023-05-25T10:49:07.667Z,99857.97
2023-05-25T10:50:40.022Z,99857.84
2023-05-25T10:52:12.293Z,99857.44
2023-05-25T10:53:46.342Z,99851.31
2023-05-25T10:55:18.577Z,99853.47
2023-05-25T10:57:10.506Z,99850.47
2023-05-25T10:58:44.813Z,99842.44
2023-05-25T11:00:17.441Z,99844.94
2023-05-25T11:01:52.358Z,99844.84
2023-05-25T11:03:44.717Z,99837.09
2023-05-25T11:05:33.861Z,99838.34
2023-05-25T11:07:09.093Z,99835.34
2023-05-25T11:09:00.667Z,99823.31
2023-05-25T11:10:48.689Z,99822.81
2023-05-25T11:12:22.315Z,99825.38
2023-05-25T11:13:54.379Z,99827.03
2023-05-25T11:15:30.583Z,99819.94
2023-05-25T11:17:15.451Z,99816.56
2023-05-25T11:18:56.224Z,99816.81
2023-05-25T11:20:30.514Z,99826.34
2023-05-25T11:22:22.845Z,99819.13
2023-05-25T11:23:57.993Z,99821.88
2023-05-25T11:25:40.642Z,99828.13
2023-05-25T11:27:13.272Z,99824.50
2023-05-25T11:28:48.433Z,99825.44
2023-05-25T11:30:20.604Z,99819.84
2023-05-25T11:31:55.435Z,99819.00
2023-05-25T11:33:28.257Z,99821.78
2023-05-25T11:35:01.134Z,99824.88
2023-05-25T11:36:35.822Z,99818.88
2023-05-25T11:38:11.322Z,99818.28
2023-05-25T11:39:50.526Z,99825.38
2023-05-25T11:41:22.724Z,99814.25
2023-05-25T11:42:56.228Z,99822.22
2023-05-25T11:44:30.380Z,99816.72
2023-05-25T11:46:03.422Z,99816.22
2023-05-25T11:47:36.004Z,99825.50
2023-05-25T11:49:10.250Z,99819.25
2023-05-25T11:50:42.504Z,99815.75
2023-05-25T11:52:16.029Z,99820.09
2023-05-25T11:55:27.473Z,99818.03
2023-05-25T11:57:00.491Z,99819.22
2023-05-25T11:58:35.640Z,99818.84
2023-05-25T12:00:10.022Z,99824.31
2023-05-25T12:01:42.538Z,99821.19
2023-05-25T12:03:33.739Z,99819.50
2023-05-25T12:05:09.488Z,99817.03
2023-05-25T12:06:43.157Z,99816.53
2023-05-25T12:08:15.513Z,99816.63
2023-05-25T12:09:47.991Z,99810.00
2023-05-25T12:11:38.713Z,99811.59
2023-05-25T12:13:11.819Z,99812.75
2023-05-25T12:14:50.441Z,99807.13
2023-05-25T12:16:23.382Z,99806.50
2023-05-25T12:17:56.657Z,99815.41
2023-05-25T12:19:28.920Z,99810.41
2023-05-25T12:21:01.198Z,99813.38
2023-05-25T12:22:33.413Z,99812.06
2023-05-25T12:24:06.584Z,99810.78
2023-05-25T12:25:49.791Z,99809.53
2023-05-25T12:27:23.493Z,99806.97
2023-05-25T12:29:06.573Z,99805.06
2023-05-25T12:30:39.110Z,99800.13
2023-05-25T12:32:11.378Z,99801.19
2023-05-25T12:33:44.154Z,99796.66
2023-05-25T12:35:16.430Z,99787.84
2023-05-25T12:36:52.219Z,99780.78
2023-05-25T12:38:24.630Z,99780.91
2023-05-25T12:40:00.152Z,99780.34
2023-05-25T12:41:35.283Z,99783.47
2023-05-25T12:43:07.554Z,99779.25
2023-05-25T12:44:39.758Z,99785.75
2023-05-25T12:46:12.108Z,99777.41
2023-05-25T12:47:46.269Z,99764.72
2023-05-25T12:49:35.254Z,99768.59
2023-05-25T12:51:07.453Z,99761.75
2023-05-25T12:54:12.480Z,99753.63
2023-05-25T12:55:44.810Z,99755.22
2023-05-25T12:57:20.794Z,99752.66
2023-05-25T12:58:56.064Z,99753.63
2023-05-25T13:00:32.334Z,99756.19
2023-05-25T13:02:07.661Z,99753.28
2023-05-25T13:03:40.092Z,99756.28
2023-05-25T13:05:38.790Z,99752.19
2023-05-25T13:07:11.649Z,99749.38
2023-05-25T13:08:43.863Z,99750.59
2023-05-25T13:10:18.263Z,99754.59
2023-05-25T13:11:50.633Z,99752.06
2023-05-25T13:13:23.040Z,99750.59
2023-05-25T13:14:55.376Z,99755.66
2023-05-25T13:16:28.329Z,99757.25
2023-05-25T13:18:00.824Z,99752.66
2023-05-25T13:19:33.134Z,99752.50
2023-05-25T13:21:05.365Z,99744.78
2023-05-25T13:22:37.564Z,99742.09
2023-05-25T13:24:09.964Z,99734.06
2023-05-25T13:25:42.198Z,99734.16
2023-05-25T13:27:14.338Z,99726.69
2023-05-25T13:28:46.965Z,99728.31
2023-05-25T13:30:21.160Z,99727.34
2023-05-25T13:31:53.441Z,99728.66
2023-05-25T13:33:25.664Z,99728.25
2023-05-25T13:35:00.204Z,99723.53
2023-05-25T13:36:35.415Z,99727.16
2023-05-25T13:38:07.705Z,99724.81
2023-05-25T13:39:39.982Z,99722.03
2023-05-25T13:41:13.010Z,99725.59
2023-05-25T13:42:45.177Z,99720.72
2023-05-25T13:44:17.682Z,99718.53
2023-05-25T13:45:50.322Z,99716.38
2023-05-25T13:47:22.583Z,99722.94
2023-05-25T13:48:54.843Z,99725.88
2023-05-25T13:50:27.054Z,99720.56
2023-05-25T13:51:59.401Z,99712.91
2023-05-25T13:53:32.083Z,99711.38
2023-05-25T13:55:04.670Z,99711.38
2023-05-25T13:58:21.199Z,99708.03
2023-05-25T13:59:53.484Z,99709.66
2023-05-25T14:01:28.072Z,99706.81
2023-05-25T14:03:00.407Z,99708.25
2023-05-25T14:04:32.860Z,99713.31
2023-05-25T14:06:05.241Z,99712.03
2023-05-25T14:07:38.065Z,99716.13
2023-05-25T14:09:12.092Z,99710.28
2023-05-25T14:10:45.217Z,99707.78
2023-05-25T14:12:17.642Z,99718.25
2023-05-25T14:13:49.757Z,99710.44
2023-05-25T14:15:21.901Z,99717.16
2023-05-25T14:16:54.124Z,99722.06
2023-05-25T14:18:26.272Z,99718.03
2023-05-25T14:19:59.231Z,99722.00
2023-05-25T14:21:31.865Z,99721.88
2023-05-25T14:23:04.088Z,99713.50
2023-05-25T14:24:36.292Z,99709.59
2023-05-25T14:27:51.726Z,99699.09
2023-05-25T14:29:23.941Z,99700.59
2023-05-25T14:30:56.592Z,99707.31
2023-05-25T14:32:28.852Z,99713.88
2023-05-25T14:34:01.090Z,99711.78
2023-05-25T14:35:33.331Z,99724.22
2023-05-25T14:37:05.492Z,99722.28
2023-05-25T14:38:37.669Z,99721.56
2023-05-25T14:40:10.399Z,99724.16
2023-05-25T14:41:42.593Z,99723.34
2023-05-25T14:43:14.787Z,99722.41
2023-05-25T14:44:47.086Z,99726.78
2023-05-25T14:46:19.754Z,99723.31
2023-05-25T14:48:00.758Z,99721.47
2023-05-25T14:49:40.334Z,99714.31
2023-05-25T14:51:12.497Z,99717.53
2023-05-25T14:52:44.728Z,99715.03
2023-05-25T14:54:17.158Z,99711.84
2023-05-25T14:55:49.270Z,99705.16
2023-05-25T14:57:21.506Z,99711.31
2023-05-25T14:58:53.688Z,99702.78
2023-05-25T15:00:26.818Z,99708.34
2023-05-25T15:01:59.036Z,99707.19
2023-05-25T15:03:31.392Z,99703.72
2023-05-25T15:05:03.634Z,99695.22
2023-05-25T15:06:37.299Z,99693.81
2023-05-25T15:08:09.553Z,99691.63
2023-05-25T15:09:42.727Z,99693.28
2023-05-25T15:11:14.705Z,99695.00
2023-05-25T15:12:46.863Z,99691.53
2023-05-25T15:14:19.033Z,99686.78
2023-05-25T15:15:55.001Z,99687.28
2023-05-25T15:17:27.224Z,99690.66
2023-05-25T15:18:59.466Z,99682.13
2023-05-25T15:20:33.012Z,99688.38
2023-05-25T15:22:05.331Z,99687.84
2023-05-25T15:23:37.839Z,99690.97
2023-05-25T15:25:10.094Z,99695.41
2023-05-25T15:26:42.468Z,99693.75
2023-05-25T15:28:14.773Z,99692.91
2023-05-25T15:29:47.740Z,99695.69
2023-05-25T15:31:19.935Z,99698.06
2023-05-25T15:32:52.217Z,99704.25
2023-05-25T15:34:24.458Z,99715.81
2023-05-25T15:35:56.697Z,99723.06
2023-05-25T15:37:30.543Z,99727.03
2023-05-25T15:39:02.767Z,99723.16
2023-05-25T15:40:37.460Z,99731.81
2023-05-25T15:42:09.655Z,99734.38
2023-05-25T15:43:41.912Z,99740.72
2023-05-25T15:45:14.105Z,99747.66
2023-05-25T15:46:46.465Z,99756.13
2023-05-25T15:48:18.830Z,99744.56
2023-05-25T15:49:51.051Z,99749.00
2023-05-25T15:51:23.287Z,99743.28
2023-05-25T15:52:55.487Z,99733.69
2023-05-25T15:54:27.584Z,99727.06
2023-05-25T15:55:59.829Z,99736.16
2023-05-25T15:57:32.067Z,99732.06
2023-05-25T15:59:05.280Z,99734.41
2023-05-25T16:02:17.164Z,99723.31
2023-05-25T16:03:49.558Z,99725.69
2023-05-25T16:05:21.776Z,99723.38
2023-05-25T16:06:53.999Z,99725.09
2023-05-25T16:08:26.387Z,99731.19
2023-05-25T16:09:58.576Z,99733.94
2023-05-25T16:11:32.318Z,99726.41
2023-05-25T16:13:04.588Z,99719.94
2023-05-25T16:14:36.820Z,99705.28
2023-05-25T16:16:09.240Z,99703.31
2023-05-25T16:17:41.557Z,99704.44
2023-05-25T16:19:14.209Z,99707.56
2023-05-25T16:20:46.780Z,99717.19
2023-05-25T16:22:19.035Z,99739.69
2023-05-25T16:23:51.669Z,99756.66
2023-05-25T16:25:23.795Z,99766.25
2023-05-25T16:26:57.998Z,99764.97
2023-05-25T16:28:30.258Z,99767.34
2023-05-25T16:30:02.465Z,99761.88
2023-05-25T16:31:35.139Z,99769.94
2023-05-25T16:33:07.497Z,99786.47
2023-05-25T16:34:39.728Z,99793.56
2023-05-25T16:36:13.953Z,99799.06
2023-05-25T16:37:46.293Z,99819.88
2023-05-25T16:39:20.936Z,99815.31
2023-05-25T16:40:53.161Z,99813.28
2023-05-25T16:42:26.764Z,99798.78
2023-05-25T16:43:59.302Z,99798.44
2023-05-25T16:45:31.572Z,99803.09
2023-05-25T16:47:03.807Z,99812.59
2023-05-25T16:48:36.054Z,99811.03
2023-05-25T16:50:08.795Z,99815.09
2023-05-25T16:51:41.189Z,99819.69
2023-05-25T16:53:13.452Z,99810.78
2023-05-25T16:54:45.769Z,99818.50
2023-05-25T16:56:18.762Z,99823.47
2023-05-25T16:57:51.025Z,99835.78
2023-05-25T16:59:23.236Z,99839.78
2023-05-25T17:02:56.438Z,99878.28
2023-05-25T17:04:28.642Z,99881.03
2023-05-25T17:06:00.930Z,99887.25
2023-05-25T17:07:36.606Z,99899.28
2023-05-25T17:09:09.646Z,99905.22
2023-05-25T17:10:43.896Z,99908.44
2023-05-25T17:12:16.235Z,99905.16
2023-05-25T17:13:48.564Z,99912.19
2023-05-25T17:15:20.935Z,99921.97
2023-05-25T17:16:53.229Z,99928.13
2023-05-25T17:18:25.493Z,99926.44
2023-05-25T17:19:57.723Z,99936.63
2023-05-25T17:21:30.145Z,99941.09
2023-05-25T17:23:02.359Z,99936.03
2023-05-25T17:24:34.527Z,99930.72
2023-05-25T17:26:06.704Z,99926.38
2023-05-25T17:27:38.917Z,99917.66
2023-05-25T17:29:11.264Z,99898.00
2023-05-25T17:30:43.461Z,99878.56
2023-05-25T17:33:48.485Z,99852.91
2023-05-25T17:35:20.771Z,99851.44
2023-05-25T17:36:53.023Z,99850.03
2023-05-25T17:38:25.778Z,99833.91
2023-05-25T17:39:58.017Z,99834.97
2023-05-25T17:41:31.233Z,99835.03
2023-05-25T17:43:03.673Z,99847.56
2023-05-25T17:44:40.497Z,99855.63
2023-05-25T17:46:12.758Z,99855.84
2023-05-25T17:47:45.177Z,99854.38
2023-05-25T17:49:17.659Z,99856.91
2023-05-25T17:50:49.945Z,99858.53
2023-05-25T17:52:22.187Z,99853.22
2023-05-25T17:53:54.375Z,99862.69
2023-05-25T17:55:27.437Z,99842.75
2023-05-25T17:56:59.772Z,99855.06
2023-05-25T17:58:34.572Z,99859.47
2023-05-25T18:00:07.466Z,99869.13
2023-05-25T18:01:40.194Z,99876.22
2023-05-25T18:03:12.645Z,99873.72
2023-05-25T18:06:16.938Z,99871.41
2023-05-25T18:07:49.160Z,99877.63
2023-05-25T18:09:21.598Z,99884.78
2023-05-25T18:10:53.872Z,99890.97
2023-05-25T18:12:26.335Z,99894.59
2023-05-25T18:13:58.531Z,99889.41
2023-05-25T18:15:30.669Z,99887.88
2023-05-25T19:09:44.390Z,99930.88
2023-05-25T19:11:17.100Z,99941.31
2023-05-25T19:12:49.255Z,99935.97
2023-05-25T19:14:21.420Z,99939.47
2023-05-25T19:15:53.624Z,99930.84
2023-05-25T19:17:25.936Z,99943.06
2023-05-25T19:18:58.132Z,99938.59
2023-05-25T19:20:32.972Z,99937.69
2023-05-25T19:22:06.789Z,99943.78
2023-05-25T19:23:39.058Z,99950.50
2023-05-25T19:25:11.271Z,99954.91
2023-05-25T19:26:43.426Z,99958.38
2023-05-25T19:28:15.702Z,99957.53
2023-05-25T19:29:48.391Z,99950.56